Terminal Aerodrome Forecast
Issued by NWS

Home | Current Version | Previous Version | Text Only | Print | Product List | Glossary On
Versions: 1 2 3 4 5 6 7 8 9 10 11 12 13 14 15 16 17 18 19 20
000
FTUS43 KDDC 191552 AAB
TAFGCK
TAF AMD
KGCK 191552Z 1916/2012 19008KT 6SM BR OVC005
     FM191730 18013KT P6SM SCT005
     FM192100 17018G28KT P6SM BKN200
     FM200900 19011KT P6SM SCT130
     FM201000 21011KT P6SM BKN150=

USA.gov is the U.S. government's official web portal to all federal, state and local government web resources and services.